Naha2 — JD3425 — position and weather

sailwx.info

Track history (hours):
 
Tides and Currents Weather Stations Pressure Air Temp Water Temp Dewpoint Dewpoint Depression Visibility Wind Speed Wind Dir Waves Ship Positions

Naha2

Last reported at 2017-Nov-18 11:55 UTC. Time now 2017-Nov-22 12:49 UTC.
Position N 34°13' E 134°57'.

Length 99 m; draft 5.3 m.

Type: Cargo ship. MMSI: 431004022.

Date/timePositionNaut miles runAvg speedWind from/ knotsBaromVisibWave heightAir tempDewpointWater temp
2017-Nov-18 11:55N 34°13' E 134°57'919.0
2017-Nov-18 11:28N 34°21' E 134°60'918.8
2017-Nov-18 11:00N 34°27' E 135°07'1019.2
2017-Nov-18 10:31N 34°33' E 135°15'918.1
2017-Nov-18 10:01N 34°39' E 135°24'2 3.3
2017-Nov-18 09:24N 34°38' E 135°26'0 0.0
2017-Nov-18 08:48N 34°38' E 135°26'0 0.0
2017-Nov-18 08:18N 34°38' E 135°26'0 0.0
2017-Nov-18 06:24N 34°38' E 135°26'0 0.0
2017-Nov-17 21:48N 34°38' E 135°26'1 2.8
2017-Nov-17 21:30N 34°38' E 135°27'4 7.9
2017-Nov-17 21:00N 34°37' E 135°22'713.1
2017-Nov-17 20:30N 34°33' E 135°16'815.8
2017-Nov-17 20:00N 34°27' E 135°10'916.1
2017-Nov-17 19:29N 34°21' E 135°03'715.4
2017-Nov-17 19:01N 34°14' E 134°59'1015.6
2017-Nov-17 18:24N 34°05' E 134°58'  
2017-Nov-14 12:29N 34°13' E 134°57'1019.0
2017-Nov-14 11:58N 34°23' E 135°02'919.2
2017-Nov-14 11:30N 34°29' E 135°10'918.8
2017-Nov-14 11:00N 34°35' E 135°18'714.6
2017-Nov-14 10:30N 34°39' E 135°26'1 1.6
2017-Nov-14 09:38N 34°38' E 135°26'0 0.0
2017-Nov-14 09:26N 34°38' E 135°26'0 0.0
2017-Nov-14 08:56N 34°38' E 135°26'0 0.0
2017-Nov-14 06:44N 34°38' E 135°26'0 0.0
2017-Nov-14 06:20N 34°38' E 135°26'0 0.0
2017-Nov-14 05:56N 34°38' E 135°26'0 0.0
2017-Nov-14 03:26N 34°38' E 135°26'0 0.0
2017-Nov-14 02:44N 34°38' E 135°26'0 0.0
2017-Nov-14 02:20N 34°38' E 135°26'0 0.0
2017-Nov-14 01:56N 34°38' E 135°26'0 0.0
2017-Nov-14 01:26N 34°38' E 135°26'0 0.0
2017-Nov-13 23:50N 34°38' E 135°26'0 0.0
2017-Nov-13 23:20N 34°38' E 135°26'0 0.0
2017-Nov-13 22:50N 34°38' E 135°26'0 0.0
2017-Nov-13 22:26N 34°38' E 135°26'0 0.0
2017-Nov-13 21:50N 34°38' E 135°26'0 0.0
2017-Nov-13 01:56N 34°38' E 135°26'0 0.0
2017-Nov-13 01:20N 34°38' E 135°26'0 0.0
2017-Nov-13 00:56N 34°38' E 135°26'0 0.0
2017-Nov-13 00:08N 34°38' E 135°26'0 0.0
2017-Nov-12 23:56N 34°38' E 135°26'0 0.0
2017-Nov-12 23:26N 34°38' E 135°26'0 1.1
2017-Nov-12 23:00N 34°38' E 135°27'510.0
2017-Nov-12 22:30N 34°37' E 135°21'815.8
2017-Nov-12 21:59N 34°30' E 135°14'715.6
2017-Nov-12 21:30N 34°25' E 135°08'1016.1
2017-Nov-12 20:54N 34°18' E 134°60'616.7
2017-Nov-12 20:30N 34°11' E 134°59'816.7
2017-Nov-12 20:00N 34°03' E 134°59'  
2017-Nov-09 13:23N 34°12' E 134°57'919.1
2017-Nov-09 12:56N 34°20' E 134°60'818.6
2017-Nov-09 12:30N 34°26' E 135°06'1019.5
2017-Nov-09 12:00N 34°33' E 135°15'918.0
2017-Nov-09 11:30N 34°38' E 135°23'3 5.0
2017-Nov-09 10:59N 34°38' E 135°26'0 0.1
2017-Nov-09 10:21N 34°38' E 135°26'0 0.0
2017-Nov-09 09:57N 34°38' E 135°26'0 0.0
2017-Nov-09 09:27N 34°38' E 135°26'0 0.0
2017-Nov-09 03:39N 34°38' E 135°26'0 0.0
2017-Nov-09 00:45N 34°38' E 135°26'0 0.0
2017-Nov-09 00:27N 34°38' E 135°26'0 0.0
2017-Nov-08 23:39N 34°38' E 135°26'0 0.0
2017-Nov-08 23:21N 34°38' E 135°26'0 0.0
2017-Nov-08 22:57N 34°38' E 135°26'0 0.0
2017-Nov-08 22:27N 34°38' E 135°26'0 0.0
2017-Nov-08 21:57N 34°38' E 135°26'1 2.7
2017-Nov-08 21:30N 34°39' E 135°26'612.1
2017-Nov-08 21:00N 34°35' E 135°20'815.2
2017-Nov-08 20:31N 34°30' E 135°14'815.4
2017-Nov-08 19:58N 34°24' E 135°07'715.2
2017-Nov-08 19:30N 34°19' E 135°00'713.4
2017-Nov-08 19:00N 34°12' E 134°60'816.3
2017-Nov-08 18:30N 34°04' E 134°58'  
Track history (hours):
 
Tides and Currents Weather Stations Pressure Air Temp Water Temp Dewpoint Dewpoint Depression Visibility Wind Speed Wind Dir Waves Ship Positions

Naha2

Last reported at 2017-Nov-18 11:55 UTC. Time now 2017-Nov-22 12:49 UTC.
Position N 34°13' E 134°57'.

Length 99 m; draft 5.3 m.

Type: Cargo ship. MMSI: 431004022.

Date/timePositionNaut miles runAvg speedWind from/ knotsBaromVisibWave heightAir tempDewpointWater temp
2017-Nov-18 11:55N 34°13' E 134°57'919.0
2017-Nov-18 11:28N 34°21' E 134°60'918.8
2017-Nov-18 11:00N 34°27' E 135°07'1019.2
2017-Nov-18 10:31N 34°33' E 135°15'918.1
2017-Nov-18 10:01N 34°39' E 135°24'2 3.3
2017-Nov-18 09:24N 34°38' E 135°26'0 0.0
2017-Nov-18 08:48N 34°38' E 135°26'0 0.0
2017-Nov-18 08:18N 34°38' E 135°26'0 0.0
2017-Nov-18 06:24N 34°38' E 135°26'0 0.0
2017-Nov-17 21:48N 34°38' E 135°26'1 2.8
2017-Nov-17 21:30N 34°38' E 135°27'4 7.9
2017-Nov-17 21:00N 34°37' E 135°22'713.1
2017-Nov-17 20:30N 34°33' E 135°16'815.8
2017-Nov-17 20:00N 34°27' E 135°10'916.1
2017-Nov-17 19:29N 34°21' E 135°03'715.4
2017-Nov-17 19:01N 34°14' E 134°59'1015.6
2017-Nov-17 18:24N 34°05' E 134°58'  
2017-Nov-14 12:29N 34°13' E 134°57'1019.0
2017-Nov-14 11:58N 34°23' E 135°02'919.2
2017-Nov-14 11:30N 34°29' E 135°10'918.8
2017-Nov-14 11:00N 34°35' E 135°18'714.6
2017-Nov-14 10:30N 34°39' E 135°26'1 1.6
2017-Nov-14 09:38N 34°38' E 135°26'0 0.0
2017-Nov-14 09:26N 34°38' E 135°26'0 0.0
2017-Nov-14 08:56N 34°38' E 135°26'0 0.0
2017-Nov-14 06:44N 34°38' E 135°26'0 0.0
2017-Nov-14 06:20N 34°38' E 135°26'0 0.0
2017-Nov-14 05:56N 34°38' E 135°26'0 0.0
2017-Nov-14 03:26N 34°38' E 135°26'0 0.0
2017-Nov-14 02:44N 34°38' E 135°26'0 0.0
2017-Nov-14 02:20N 34°38' E 135°26'0 0.0
2017-Nov-14 01:56N 34°38' E 135°26'0 0.0
2017-Nov-14 01:26N 34°38' E 135°26'0 0.0
2017-Nov-13 23:50N 34°38' E 135°26'0 0.0
2017-Nov-13 23:20N 34°38' E 135°26'0 0.0
2017-Nov-13 22:50N 34°38' E 135°26'0 0.0
2017-Nov-13 22:26N 34°38' E 135°26'0 0.0
2017-Nov-13 21:50N 34°38' E 135°26'0 0.0
2017-Nov-13 01:56N 34°38' E 135°26'0 0.0
2017-Nov-13 01:20N 34°38' E 135°26'0 0.0
2017-Nov-13 00:56N 34°38' E 135°26'0 0.0
2017-Nov-13 00:08N 34°38' E 135°26'0 0.0
2017-Nov-12 23:56N 34°38' E 135°26'0 0.0
2017-Nov-12 23:26N 34°38' E 135°26'0 1.1
2017-Nov-12 23:00N 34°38' E 135°27'510.0
2017-Nov-12 22:30N 34°37' E 135°21'815.8
2017-Nov-12 21:59N 34°30' E 135°14'715.6
2017-Nov-12 21:30N 34°25' E 135°08'1016.1
2017-Nov-12 20:54N 34°18' E 134°60'616.7
2017-Nov-12 20:30N 34°11' E 134°59'816.7
2017-Nov-12 20:00N 34°03' E 134°59'  
2017-Nov-09 13:23N 34°12' E 134°57'919.1
2017-Nov-09 12:56N 34°20' E 134°60'818.6
2017-Nov-09 12:30N 34°26' E 135°06'1019.5
2017-Nov-09 12:00N 34°33' E 135°15'918.0
2017-Nov-09 11:30N 34°38' E 135°23'3 5.0
2017-Nov-09 10:59N 34°38' E 135°26'0 0.1
2017-Nov-09 10:21N 34°38' E 135°26'0 0.0
2017-Nov-09 09:57N 34°38' E 135°26'0 0.0
2017-Nov-09 09:27N 34°38' E 135°26'0 0.0
2017-Nov-09 03:39N 34°38' E 135°26'0 0.0
2017-Nov-09 00:45N 34°38' E 135°26'0 0.0
2017-Nov-09 00:27N 34°38' E 135°26'0 0.0
2017-Nov-08 23:39N 34°38' E 135°26'0 0.0
2017-Nov-08 23:21N 34°38' E 135°26'0 0.0
2017-Nov-08 22:57N 34°38' E 135°26'0 0.0
2017-Nov-08 22:27N 34°38' E 135°26'0 0.0
2017-Nov-08 21:57N 34°38' E 135°26'1 2.7
2017-Nov-08 21:30N 34°39' E 135°26'612.1
2017-Nov-08 21:00N 34°35' E 135°20'815.2
2017-Nov-08 20:31N 34°30' E 135°14'815.4
2017-Nov-08 19:58N 34°24' E 135°07'715.2
2017-Nov-08 19:30N 34°19' E 135°00'713.4
2017-Nov-08 19:00N 34°12' E 134°60'816.3
2017-Nov-08 18:30N 34°04' E 134°58'  

Dump ship's entire track history